createdAt,value
2023-01-11T00:01:09.117Z,52.14
2023-01-11T00:03:36.831Z,52.35
2023-01-11T00:06:04.977Z,51.74
2023-01-11T00:08:32.289Z,51.20
2023-01-11T00:11:02.337Z,51.19
2023-01-11T00:13:31.296Z,49.73
2023-01-11T00:16:06.950Z,49.86
2023-01-11T00:18:34.542Z,48.91
2023-01-11T00:21:06.482Z,48.24
2023-01-11T00:23:38.209Z,48.49
2023-01-11T00:26:09.632Z,48.88
2023-01-11T00:28:36.931Z,48.13
2023-01-11T00:31:04.612Z,48.61
2023-01-11T00:33:32.146Z,48.27
2023-01-11T00:35:59.478Z,47.56
2023-01-11T00:38:47.116Z,47.72
2023-01-11T00:41:34.773Z,48.44
2023-01-11T00:44:22.519Z,47.86
2023-01-11T00:47:09.026Z,47.94
2023-01-11T00:49:36.786Z,48.41
2023-01-11T00:52:08.896Z,48.20
2023-01-11T00:54:41.511Z,48.62
2023-01-11T00:57:08.991Z,47.07
2023-01-11T00:59:39.522Z,47.60
2023-01-11T01:02:09.289Z,47.55
2023-01-11T01:04:37.822Z,47.70
2023-01-11T01:07:06.848Z,47.43
2023-01-11T01:09:34.470Z,47.20
2023-01-11T01:12:02.377Z,47.63
2023-01-11T01:14:33.243Z,47.91
2023-01-11T01:17:07.289Z,48.10
2023-01-11T01:19:39.017Z,48.09
2023-01-11T01:22:06.416Z,48.21
2023-01-11T01:24:34.215Z,48.80
2023-01-11T01:27:01.600Z,48.61
2023-01-11T01:29:29.677Z,48.21
2023-01-11T01:31:57.551Z,48.58
2023-01-11T01:34:25.008Z,49.85
2023-01-11T01:36:52.253Z,49.59
2023-01-11T01:39:19.540Z,50.11
2023-01-11T01:41:46.794Z,50.09
2023-01-11T01:45:20.149Z,51.82
2023-01-11T01:48:00.893Z,51.88
2023-01-11T01:50:52.110Z,52.02
2023-01-11T01:53:39.498Z,51.38
2023-01-11T01:56:35.590Z,51.32
2023-01-11T01:59:12.878Z,51.89
2023-01-11T02:01:47.891Z,52.09
2023-01-11T02:04:27.317Z,52.04
2023-01-11T02:07:08.085Z,53.09
2023-01-11T02:10:11.019Z,53.04
2023-01-11T02:12:51.004Z,52.88
2023-01-11T02:15:22.387Z,52.88
2023-01-11T02:17:55.781Z,52.80
2023-01-11T02:20:50.228Z,52.68
2023-01-11T02:23:52.704Z,52.22
2023-01-11T02:26:48.322Z,52.59
2023-01-11T02:30:04.247Z,53.59
2023-01-11T02:32:53.375Z,53.12
2023-01-11T02:35:42.875Z,53.66
2023-01-11T02:38:29.957Z,53.28
2023-01-11T02:41:54.405Z,53.45
2023-01-11T02:44:55.656Z,53.87
2023-01-11T02:47:53.116Z,54.39
2023-01-11T02:50:56.028Z,53.69
2023-01-11T02:53:37.814Z,55.32
2023-01-11T02:56:16.339Z,55.67
2023-01-11T02:58:49.647Z,55.52
2023-01-11T03:01:22.709Z,54.07
2023-01-11T03:03:52.375Z,54.12
2023-01-11T03:06:27.889Z,53.07
2023-01-11T03:09:09.987Z,54.15
2023-01-11T03:12:07.976Z,55.12
2023-01-11T03:15:26.331Z,54.59
2023-01-11T03:18:33.730Z,53.98
2023-01-11T03:21:36.629Z,53.69
2023-01-11T03:24:33.995Z,53.33
2023-01-11T03:27:25.865Z,53.15
2023-01-11T03:30:13.682Z,54.35
2023-01-11T03:32:53.616Z,55.00
2023-01-11T03:35:43.307Z,53.80
2023-01-11T03:38:30.534Z,52.70
2023-01-11T03:41:12.422Z,52.36
2023-01-11T03:43:45.264Z,52.54
2023-01-11T03:46:27.481Z,53.29
2023-01-11T03:49:07.979Z,53.54
2023-01-11T03:51:44.117Z,53.56
2023-01-11T03:54:20.561Z,52.44
2023-01-11T03:57:22.619Z,53.77
2023-01-11T03:59:50.912Z,54.13
2023-01-11T04:02:25.675Z,53.94
2023-01-11T04:04:53.348Z,54.23
2023-01-11T04:07:20.754Z,55.08
2023-01-11T04:09:53.840Z,54.69
2023-01-11T04:12:22.780Z,55.41
2023-01-11T04:14:53.124Z,56.14
2023-01-11T04:17:20.547Z,55.88
2023-01-11T04:19:47.857Z,55.89
2023-01-11T04:22:15.149Z,55.87
2023-01-11T04:24:42.493Z,55.93
2023-01-11T04:27:09.735Z,55.72
2023-01-11T04:29:37.068Z,55.65
2023-01-11T04:32:04.681Z,56.04
2023-01-11T04:34:32.015Z,56.18
2023-01-11T04:36:59.941Z,55.51
2023-01-11T04:39:27.267Z,56.31
2023-01-11T04:42:12.954Z,56.74
2023-01-11T04:44:40.315Z,57.95
2023-01-11T04:47:07.561Z,57.62
2023-01-11T04:49:35.251Z,56.69
2023-01-11T04:52:02.422Z,56.48
2023-01-11T04:54:29.830Z,55.20
2023-01-11T04:56:58.324Z,54.13
2023-01-11T04:59:25.702Z,55.10
2023-01-11T05:01:53.138Z,55.42
2023-01-11T05:04:21.071Z,55.39
2023-01-11T05:06:48.906Z,55.97
2023-01-11T05:09:18.578Z,56.88
2023-01-11T05:11:46.476Z,56.35
2023-01-11T05:14:15.928Z,56.63
2023-01-11T05:16:43.386Z,56.59
2023-01-11T05:19:12.451Z,56.77
2023-01-11T05:21:42.392Z,56.94
2023-01-11T05:24:15.103Z,57.91
2023-01-11T05:26:45.215Z,58.50
2023-01-11T05:29:20.748Z,59.53
2023-01-11T05:31:51.208Z,60.76
2023-01-11T05:34:19.092Z,61.99
2023-01-11T05:36:46.615Z,61.44
2023-01-11T05:39:15.556Z,62.46
2023-01-11T05:41:43.006Z,62.35
2023-01-11T05:44:32.010Z,62.13
2023-01-11T05:46:59.676Z,61.24
2023-01-11T05:49:27.030Z,58.62
2023-01-11T05:51:54.556Z,56.30
2023-01-11T05:54:22.194Z,55.95
2023-01-11T05:56:49.515Z,57.18
2023-01-11T05:59:16.830Z,58.04
2023-01-11T06:01:44.238Z,59.31
2023-01-11T06:04:11.997Z,58.98
2023-01-11T06:06:39.377Z,59.88
2023-01-11T06:09:06.688Z,60.50
2023-01-11T06:11:34.058Z,60.20
2023-01-11T06:14:01.496Z,58.58
2023-01-11T06:16:28.832Z,58.39
2023-01-11T06:18:56.228Z,59.62
2023-01-11T06:21:24.481Z,59.76
2023-01-11T06:23:51.982Z,59.77
2023-01-11T06:26:23.174Z,60.10
2023-01-11T06:28:51.709Z,61.10
2023-01-11T06:31:19.853Z,61.88
2023-01-11T06:33:47.800Z,61.87
2023-01-11T06:36:16.155Z,62.50
2023-01-11T06:38:44.673Z,62.36
2023-01-11T06:41:13.386Z,62.11
2023-01-11T06:43:41.995Z,61.53
2023-01-11T06:46:16.431Z,61.46
2023-01-11T06:48:44.565Z,61.36
2023-01-11T06:51:14.034Z,61.89
2023-01-11T06:53:43.848Z,61.73
2023-01-11T06:56:17.538Z,61.12
2023-01-11T06:58:48.085Z,62.25
2023-01-11T07:01:16.782Z,62.89
2023-01-11T07:03:49.202Z,62.11
2023-01-11T07:06:16.535Z,62.45
2023-01-11T07:08:44.036Z,62.68
2023-01-11T07:11:11.758Z,62.78
2023-01-11T07:13:39.294Z,64.01
2023-01-11T07:16:07.071Z,64.65
2023-01-11T07:18:34.595Z,64.81
2023-01-11T07:21:02.503Z,64.97
2023-01-11T07:23:29.905Z,65.84
2023-01-11T07:25:57.281Z,65.77
2023-01-11T07:28:24.780Z,66.35
2023-01-11T07:30:58.842Z,65.29
2023-01-11T07:33:27.836Z,64.42
2023-01-11T07:35:55.323Z,64.71
2023-01-11T07:38:23.330Z,63.97
2023-01-11T07:40:50.893Z,63.71
2023-01-11T07:43:20.017Z,63.25
2023-01-11T07:45:51.323Z,63.46
2023-01-11T07:48:26.406Z,63.18
2023-01-11T07:50:55.003Z,63.37
2023-01-11T07:53:26.022Z,62.62
2023-01-11T07:55:57.173Z,60.94
2023-01-11T07:58:25.001Z,59.80
2023-01-11T08:00:52.332Z,60.65
2023-01-11T08:03:19.816Z,61.03
2023-01-11T08:05:52.535Z,60.60
2023-01-11T08:08:20.990Z,59.34
2023-01-11T08:11:08.381Z,58.76
2023-01-11T08:13:54.690Z,60.33
2023-01-11T08:16:22.354Z,59.34
2023-01-11T08:18:55.878Z,59.22
2023-01-11T08:21:23.280Z,58.55
2023-01-11T08:23:56.924Z,57.86
2023-01-11T08:26:28.291Z,57.17
2023-01-11T08:28:55.816Z,56.76
2023-01-11T08:31:23.249Z,56.32
2023-01-11T08:33:50.605Z,55.51
2023-01-11T08:36:18.104Z,55.31
2023-01-11T08:38:45.441Z,55.25
2023-01-11T08:41:14.102Z,54.49
2023-01-11T08:43:43.129Z,54.02
2023-01-11T08:46:10.961Z,55.25
2023-01-11T08:48:38.545Z,54.88
2023-01-11T08:51:06.225Z,56.25
2023-01-11T08:53:33.797Z,55.70
2023-01-11T08:56:01.747Z,55.58
2023-01-11T08:58:29.267Z,54.81
2023-01-11T09:01:02.776Z,55.28
2023-01-11T09:03:33.322Z,57.23
2023-01-11T09:06:02.298Z,57.70
2023-01-11T09:08:30.409Z,57.28
2023-01-11T09:10:59.999Z,57.33
2023-01-11T09:13:28.354Z,56.59
2023-01-11T09:15:59.616Z,55.89
2023-01-11T09:18:27.317Z,56.14
2023-01-11T09:20:55.191Z,55.33
2023-01-11T09:23:22.693Z,55.04
2023-01-11T09:25:50.101Z,54.63
2023-01-11T09:28:17.637Z,54.32
2023-01-11T09:30:45.400Z,54.38
2023-01-11T09:33:12.893Z,53.58
2023-01-11T09:35:42.613Z,53.27
2023-01-11T09:38:10.352Z,52.80
2023-01-11T09:41:25.282Z,53.59
2023-01-11T09:44:26.478Z,53.65
2023-01-11T09:47:13.832Z,54.37
2023-01-11T09:49:50.985Z,54.11
2023-01-11T09:52:42.184Z,54.12
2023-01-11T09:55:21.309Z,53.88
2023-01-11T09:58:07.312Z,53.81
2023-01-11T10:01:12.950Z,53.56
2023-01-11T10:04:33.026Z,53.62
2023-01-11T10:07:53.791Z,53.09
2023-01-11T10:18:29.967Z,53.27
2023-01-11T10:18:32.231Z,52.70
2023-01-11T10:20:43.841Z,52.50
2023-01-11T10:23:50.312Z,52.39
2023-01-11T10:26:29.439Z,53.49
2023-01-11T10:29:51.618Z,52.74
2023-01-11T10:32:53.245Z,52.96
2023-01-11T10:36:06.048Z,51.74
2023-01-11T10:39:22.614Z,51.80
2023-01-11T10:42:09.552Z,52.16
2023-01-11T10:44:53.579Z,52.40
2023-01-11T10:47:30.359Z,52.53
2023-01-11T10:50:12.534Z,52.91
2023-01-11T10:53:40.223Z,51.89
2023-01-11T10:58:01.712Z,52.89
2023-01-11T11:01:08.877Z,50.87
2023-01-11T11:04:35.167Z,50.12
2023-01-11T11:11:26.349Z,49.53
2023-01-11T11:14:29.862Z,49.23
2023-01-11T11:17:32.593Z,50.60
2023-01-11T11:20:20.810Z,51.32
2023-01-11T11:23:03.669Z,51.38
2023-01-11T11:25:43.383Z,51.89
2023-01-11T11:28:33.440Z,54.25
2023-01-11T11:31:07.267Z,56.70
2023-01-11T11:33:41.519Z,54.80
2023-01-11T11:36:12.023Z,53.75
2023-01-11T11:39:01.827Z,54.85
2023-01-11T11:41:29.151Z,55.59
2023-01-11T11:44:26.160Z,55.31
2023-01-11T11:47:16.076Z,54.04
2023-01-11T11:49:44.059Z,52.77
2023-01-11T11:52:23.704Z,54.60
2023-01-11T11:55:30.932Z,53.56
2023-01-11T11:58:06.551Z,52.73
2023-01-11T12:00:45.444Z,51.71
2023-01-11T12:03:32.276Z,53.14
2023-01-11T12:06:12.937Z,52.97
2023-01-11T12:08:43.480Z,53.96
2023-01-11T12:11:34.891Z,54.62
2023-01-11T12:14:11.139Z,55.47
2023-01-11T12:16:44.834Z,55.44
2023-01-11T12:19:45.267Z,55.60
2023-01-11T12:22:21.771Z,55.11
2023-01-11T12:25:08.237Z,55.12
2023-01-11T12:28:29.915Z,54.90
2023-01-11T12:31:36.668Z,53.66
2023-01-11T12:34:19.769Z,53.75
2023-01-11T12:37:17.848Z,53.19
2023-01-11T12:40:26.065Z,54.23
2023-01-11T12:43:26.033Z,55.06
2023-01-11T12:46:33.487Z,55.11
2023-01-11T12:49:40.142Z,54.65
2023-01-11T12:53:06.234Z,54.63
2023-01-11T12:56:19.620Z,55.96
2023-01-11T12:59:42.356Z,55.02
2023-01-11T13:03:27.798Z,55.33
2023-01-11T13:06:16.647Z,57.18
2023-01-11T13:08:53.297Z,58.55
2023-01-11T13:11:38.704Z,59.12
2023-01-11T13:14:54.753Z,59.45
2023-01-11T13:18:30.232Z,58.38
2023-01-11T13:21:26.092Z,59.64
2023-01-11T13:24:26.518Z,60.44
2023-01-11T13:27:11.684Z,58.95
2023-01-11T13:29:46.508Z,57.78
2023-01-11T13:32:37.634Z,59.84
2023-01-11T13:35:27.096Z,58.83
2023-01-11T13:38:33.936Z,58.69
2023-01-11T13:41:27.829Z,58.18
2023-01-11T13:44:06.177Z,58.40
2023-01-11T13:47:05.268Z,58.69
2023-01-11T13:49:49.221Z,58.80
2023-01-11T13:52:56.109Z,58.32
2023-01-11T13:55:46.319Z,57.31
2023-01-11T13:58:30.766Z,58.97
2023-01-11T14:01:15.492Z,58.10
2023-01-11T14:05:26.035Z,58.94
2023-01-11T14:08:22.593Z,60.20
2023-01-11T14:11:43.947Z,58.64
2023-01-11T14:15:02.386Z,58.84
2023-01-11T14:18:16.094Z,58.10
2023-01-11T14:21:20.556Z,57.05
2023-01-11T14:23:53.017Z,59.03
2023-01-11T14:27:06.388Z,59.55
2023-01-11T14:29:59.352Z,58.39
2023-01-11T14:33:08.200Z,58.56
2023-01-11T14:36:37.444Z,60.00
2023-01-11T14:40:01.271Z,58.61
2023-01-11T14:42:35.326Z,58.84
2023-01-11T14:45:53.118Z,58.57
2023-01-11T14:49:25.895Z,57.40
2023-01-11T14:52:04.323Z,55.64
2023-01-11T14:54:45.182Z,56.93
2023-01-11T14:57:40.617Z,55.73
2023-01-11T15:00:19.841Z,56.33
2023-01-11T15:03:18.272Z,55.88
2023-01-11T15:06:16.941Z,55.88
2023-01-11T15:08:54.820Z,56.78
2023-01-11T15:11:42.048Z,56.05
2023-01-11T15:14:30.655Z,56.04
2023-01-11T15:17:20.993Z,56.69
2023-01-11T15:19:52.082Z,56.09
2023-01-11T15:22:31.720Z,56.04
2023-01-11T15:25:28.042Z,55.69
2023-01-11T15:27:56.663Z,54.82
2023-01-11T15:30:29.948Z,54.36
2023-01-11T15:33:18.614Z,53.55
2023-01-11T15:36:03.564Z,53.25
2023-01-11T15:38:52.714Z,55.57
2023-01-11T15:42:06.514Z,53.98
2023-01-11T15:45:01.998Z,53.91
2023-01-11T15:48:11.879Z,53.87
2023-01-11T15:51:18.013Z,54.05
2023-01-11T15:54:14.591Z,52.48
2023-01-11T15:57:08.030Z,52.44
2023-01-11T16:00:25.035Z,52.51
2023-01-11T16:03:37.053Z,53.56
2023-01-11T16:06:19.918Z,53.61
2023-01-11T16:09:10.453Z,52.91
2023-01-11T16:12:34.279Z,53.20
2023-01-11T16:15:41.832Z,52.54
2023-01-11T16:18:21.118Z,52.47
2023-01-11T16:21:33.493Z,52.27
2023-01-11T16:24:13.289Z,53.55
2023-01-11T16:26:42.388Z,52.99
2023-01-11T16:29:27.283Z,52.45
2023-01-11T16:31:56.783Z,51.54
2023-01-11T16:34:28.172Z,52.21
2023-01-11T16:36:57.650Z,52.38
2023-01-11T16:39:30.543Z,52.20
2023-01-11T16:42:07.154Z,52.60
2023-01-11T16:44:57.666Z,52.53
2023-01-11T16:47:25.138Z,52.19
2023-01-11T16:50:22.026Z,51.72
2023-01-11T16:52:57.739Z,53.01
2023-01-11T16:55:40.074Z,51.26
2023-01-11T16:58:30.504Z,52.53
2023-01-11T17:01:18.571Z,52.29
2023-01-11T17:03:54.158Z,52.81
2023-01-11T17:06:26.319Z,52.97
2023-01-11T17:08:57.413Z,53.25
2023-01-11T17:11:39.854Z,54.57
2023-01-11T17:14:34.674Z,53.79
2023-01-11T17:17:07.582Z,54.32
2023-01-11T17:19:48.228Z,54.55
2023-01-11T17:22:34.234Z,54.86
2023-01-11T17:25:08.089Z,54.91
2023-01-11T17:27:46.574Z,55.60
2023-01-11T17:30:24.152Z,55.14
2023-01-11T17:32:55.922Z,55.00
2023-01-11T17:35:31.232Z,55.56
2023-01-11T17:38:05.926Z,54.80
2023-01-11T17:40:39.267Z,55.12
2023-01-11T17:43:42.641Z,55.13
2023-01-11T17:46:21.457Z,55.18
2023-01-11T17:48:57.772Z,53.85
2023-01-11T17:51:33.815Z,53.64
2023-01-11T17:54:01.648Z,54.18
2023-01-11T17:56:41.790Z,54.25
2023-01-11T17:59:23.429Z,54.30
2023-01-11T18:02:06.534Z,53.24
2023-01-11T18:04:36.107Z,54.61
2023-01-11T18:07:19.358Z,54.71
2023-01-11T18:10:24.307Z,53.67
2023-01-11T18:12:55.906Z,53.18
2023-01-11T18:15:36.922Z,53.04
2023-01-11T18:18:59.354Z,54.14
2023-01-11T18:21:54.827Z,54.79
2023-01-11T18:24:39.129Z,55.76
2023-01-11T18:27:17.593Z,56.05
2023-01-11T18:29:52.435Z,56.90
2023-01-11T18:32:23.458Z,59.87
2023-01-11T18:34:54.673Z,60.74
2023-01-11T18:37:22.321Z,60.99
2023-01-11T18:39:52.645Z,61.94
2023-01-11T18:42:29.632Z,61.99
2023-01-11T18:44:57.464Z,62.54
2023-01-11T18:47:30.391Z,63.21
2023-01-11T18:49:58.657Z,63.27
2023-01-11T18:52:33.328Z,64.17
2023-01-11T18:55:03.732Z,63.91
2023-01-11T18:57:31.307Z,64.42
2023-01-11T18:59:59.002Z,64.29
2023-01-11T19:02:45.408Z,64.10
2023-01-11T19:05:20.568Z,63.48
2023-01-11T19:07:48.919Z,63.30
2023-01-11T19:10:22.876Z,63.51
2023-01-11T19:12:50.860Z,64.94
2023-01-11T19:15:18.223Z,65.83
2023-01-11T19:17:46.041Z,65.69
2023-01-11T19:20:14.168Z,65.28
2023-01-11T19:22:44.099Z,64.55
2023-01-11T19:25:11.723Z,65.37
2023-01-11T19:27:39.195Z,66.67
2023-01-11T19:30:07.924Z,67.22
2023-01-11T19:32:35.483Z,67.82
2023-01-11T19:35:02.877Z,67.08
2023-01-11T19:37:34.288Z,67.80
2023-01-11T19:40:02.523Z,67.60
2023-01-11T19:42:30.174Z,68.32
2023-01-11T19:44:57.681Z,67.54
2023-01-11T19:47:25.094Z,68.04
2023-01-11T19:49:56.427Z,66.38
2023-01-11T19:52:23.893Z,67.63
2023-01-11T19:54:53.302Z,67.80
2023-01-11T19:57:21.767Z,66.53
2023-01-11T19:59:52.218Z,64.85
2023-01-11T20:02:40.936Z,65.36
2023-01-11T20:10:59.865Z,67.06
2023-01-11T20:18:59.266Z,63.54
2023-01-11T20:21:34.214Z,65.54
2023-01-11T20:47:36.112Z,65.64
2023-01-11T20:54:52.480Z,66.08
2023-01-11T20:57:29.391Z,66.43
2023-01-11T20:59:56.694Z,66.54
2023-01-11T21:02:24.013Z,66.29
2023-01-11T21:04:51.256Z,68.04
2023-01-11T21:07:18.437Z,68.92
2023-01-11T21:10:11.673Z,68.52
2023-01-11T21:12:39.675Z,67.67
2023-01-11T21:15:10.458Z,66.73
2023-01-11T21:17:38.043Z,66.46
2023-01-11T21:20:06.039Z,66.18
2023-01-11T21:22:33.295Z,66.12
2023-01-11T21:25:00.592Z,66.18
2023-01-11T21:27:28.022Z,66.18
2023-01-11T21:29:57.806Z,65.83
2023-01-11T21:32:25.569Z,67.42
2023-01-11T21:34:52.774Z,66.19
2023-01-11T21:37:23.801Z,66.92
2023-01-11T21:39:51.742Z,67.56
2023-01-11T21:42:19.719Z,66.86
2023-01-11T21:44:47.632Z,66.63
2023-01-11T21:47:15.030Z,65.80
2023-01-11T21:49:42.407Z,65.62
2023-01-11T21:52:10.687Z,65.63
2023-01-11T21:54:38.115Z,66.55
2023-01-11T21:57:05.491Z,66.98
2023-01-11T21:59:35.820Z,67.01
2023-01-11T22:02:03.195Z,67.17
2023-01-11T22:04:30.372Z,66.57
2023-01-11T22:06:59.891Z,66.76
2023-01-11T22:09:31.764Z,65.50
2023-01-11T22:11:59.008Z,64.00
2023-01-11T22:14:26.512Z,64.26
2023-01-11T22:16:56.971Z,64.00
2023-01-11T22:19:24.247Z,63.11
2023-01-11T22:21:51.763Z,62.22
2023-01-11T22:24:19.040Z,62.44
2023-01-11T22:26:46.637Z,63.00
2023-01-11T22:29:16.950Z,62.48
2023-01-11T22:32:01.162Z,63.84
2023-01-11T22:34:28.883Z,63.77
2023-01-11T22:36:56.928Z,63.32
2023-01-11T22:39:24.860Z,63.41
2023-01-11T22:41:52.154Z,64.14
2023-01-11T22:44:19.756Z,63.92
2023-01-11T22:46:47.529Z,63.61
2023-01-11T22:49:15.863Z,63.36
2023-01-11T22:51:44.551Z,63.25
2023-01-11T22:54:13.277Z,63.44
2023-01-11T22:56:41.689Z,63.22
2023-01-11T22:59:10.480Z,62.64
2023-01-11T23:01:41.575Z,62.12
2023-01-11T23:04:14.040Z,62.81
2023-01-11T23:06:43.311Z,63.73
2023-01-11T23:09:16.703Z,63.49
2023-01-11T23:12:05.964Z,63.11
2023-01-11T23:14:33.703Z,63.56
2023-01-11T23:17:07.543Z,63.90
2023-01-11T23:19:39.597Z,64.27
2023-01-11T23:22:09.330Z,65.69
2023-01-11T23:24:37.857Z,65.50
2023-01-11T23:27:06.234Z,63.41
2023-01-11T23:29:34.288Z,64.41
2023-01-11T23:32:01.697Z,64.31
2023-01-11T23:34:29.143Z,64.73
2023-01-11T23:36:56.349Z,63.36
2023-01-11T23:39:23.965Z,64.13
2023-01-11T23:42:10.275Z,64.12
2023-01-11T23:44:37.719Z,64.42
2023-01-11T23:47:24.009Z,63.32
2023-01-11T23:49:55.588Z,63.71
2023-01-11T23:52:33.143Z,63.53
2023-01-11T23:55:00.697Z,62.96
2023-01-11T23:57:28.107Z,62.61
2023-01-11T23:59:55.414Z,62.41
